createdAt,value
2023-04-30T00:00:24.661Z,0.93
2023-04-30T00:02:51.229Z,0.77
2023-04-30T00:05:17.808Z,0.85
2023-04-30T00:07:44.476Z,0.85
2023-04-30T00:10:11.277Z,0.77
2023-04-30T00:12:38.241Z,1.20
2023-04-30T00:15:05.039Z,1.33
2023-04-30T00:17:31.572Z,1.85
2023-04-30T00:19:58.004Z,1.20
2023-04-30T00:22:24.485Z,1.73
2023-04-30T00:24:50.970Z,1.50
2023-04-30T00:27:17.520Z,1.48
2023-04-30T00:29:44.117Z,1.63
2023-04-30T00:32:10.653Z,1.67
2023-04-30T00:34:37.196Z,1.55
2023-04-30T00:37:03.683Z,1.70
2023-04-30T00:39:30.195Z,1.10
2023-04-30T00:41:56.637Z,1.40
2023-04-30T00:44:23.107Z,1.50
2023-04-30T00:46:49.536Z,1.25
2023-04-30T00:49:16.211Z,0.90
2023-04-30T00:51:42.666Z,1.35
2023-04-30T00:54:09.355Z,0.93
2023-04-30T00:56:36.365Z,1.27
2023-04-30T00:59:02.916Z,1.30
2023-04-30T01:01:29.648Z,1.10
2023-04-30T01:03:56.286Z,1.50
2023-04-30T01:06:22.980Z,1.75
2023-04-30T01:08:49.708Z,1.92
2023-04-30T01:11:50.103Z,1.30
2023-04-30T01:14:21.974Z,1.38
2023-04-30T01:16:57.592Z,1.00
2023-04-30T01:19:38.281Z,0.88
2023-04-30T01:22:05.590Z,0.90
2023-04-30T01:24:35.083Z,1.08
2023-04-30T01:27:08.015Z,1.20
2023-04-30T01:29:35.839Z,1.20
2023-04-30T01:32:03.646Z,1.35
2023-04-30T01:34:30.220Z,0.85
2023-04-30T01:37:10.568Z,1.25
2023-04-30T01:39:55.105Z,0.80
2023-04-30T01:42:23.517Z,1.10
2023-04-30T01:45:05.891Z,0.75
2023-04-30T01:47:44.648Z,1.10
2023-04-30T01:50:35.875Z,0.95
2023-04-30T01:53:03.342Z,1.33
2023-04-30T01:55:52.534Z,0.95
2023-04-30T01:58:20.692Z,1.02
2023-04-30T02:00:47.221Z,1.23
2023-04-30T02:03:13.707Z,1.48
2023-04-30T02:05:40.222Z,1.42
2023-04-30T02:08:06.951Z,1.02
2023-04-30T02:10:33.676Z,1.05
2023-04-30T02:13:00.144Z,1.30
2023-04-30T02:15:27.440Z,1.05
2023-04-30T02:17:53.900Z,1.35
2023-04-30T02:20:20.500Z,1.30
2023-04-30T02:22:47.939Z,1.13
2023-04-30T02:25:14.440Z,1.42
2023-04-30T02:27:40.978Z,1.17
2023-04-30T02:30:08.098Z,1.25
2023-04-30T02:32:34.702Z,1.23
2023-04-30T02:35:01.592Z,1.58
2023-04-30T02:37:28.029Z,1.45
2023-04-30T02:39:54.756Z,1.23
2023-04-30T02:42:21.610Z,2.03
2023-04-30T02:44:48.117Z,1.50
2023-04-30T02:47:15.128Z,1.52
2023-04-30T02:49:41.676Z,2.05
2023-04-30T02:52:09.561Z,1.58
2023-04-30T02:54:36.443Z,1.55
2023-04-30T02:57:03.405Z,1.80
2023-04-30T02:59:29.963Z,2.05
2023-04-30T03:01:56.537Z,1.65
2023-04-30T03:04:23.046Z,1.83
2023-04-30T03:06:49.490Z,2.05
2023-04-30T03:09:16.012Z,1.63
2023-04-30T03:11:42.505Z,2.00
2023-04-30T03:14:09.058Z,1.70
2023-04-30T03:16:36.658Z,1.55
2023-04-30T03:19:03.235Z,1.50
2023-04-30T03:21:29.656Z,1.67
2023-04-30T03:23:56.095Z,1.75
2023-04-30T03:26:22.550Z,1.60
2023-04-30T03:28:49.382Z,2.22
2023-04-30T03:31:15.950Z,2.13
2023-04-30T03:33:42.484Z,2.40
2023-04-30T03:36:08.970Z,2.38
2023-04-30T03:38:35.425Z,2.20
2023-04-30T03:41:01.904Z,1.85
2023-04-30T03:43:28.369Z,2.40
2023-04-30T03:45:54.909Z,2.17
2023-04-30T03:48:21.473Z,2.58
2023-04-30T03:50:48.037Z,2.42
2023-04-30T03:53:14.489Z,2.17
2023-04-30T03:55:41.429Z,1.90
2023-04-30T03:58:08.337Z,1.88
2023-04-30T04:00:34.873Z,2.15
2023-04-30T04:03:01.353Z,1.85
2023-04-30T04:05:27.995Z,2.13
2023-04-30T04:07:54.490Z,1.75
2023-04-30T04:10:21.068Z,1.83
2023-04-30T04:12:47.582Z,1.80
2023-04-30T04:15:14.105Z,1.83
2023-04-30T04:17:40.635Z,2.42
2023-04-30T04:20:08.294Z,1.40
2023-04-30T04:22:34.723Z,1.90
2023-04-30T04:25:01.562Z,1.88
2023-04-30T04:27:28.445Z,2.53
2023-04-30T04:29:55.276Z,1.90
2023-04-30T04:32:22.725Z,1.75
2023-04-30T04:34:49.661Z,2.20
2023-04-30T04:37:17.573Z,2.00
2023-04-30T04:39:45.113Z,2.05
2023-04-30T04:42:12.052Z,2.00
2023-04-30T04:44:38.629Z,2.20
2023-04-30T04:47:05.289Z,2.83
2023-04-30T04:49:31.753Z,1.55
2023-04-30T04:51:58.271Z,1.85
2023-04-30T04:54:24.839Z,2.20
2023-04-30T04:56:51.811Z,1.60
2023-04-30T04:59:18.930Z,1.73
2023-04-30T05:01:45.535Z,1.75
2023-04-30T05:04:13.786Z,2.30
2023-04-30T05:06:41.479Z,2.47
2023-04-30T05:09:09.601Z,2.08
2023-04-30T05:11:36.485Z,2.03
2023-04-30T05:14:03.057Z,2.50
2023-04-30T05:16:30.109Z,1.52
2023-04-30T05:18:56.684Z,1.50
2023-04-30T05:21:23.277Z,1.77
2023-04-30T05:23:49.760Z,2.33
2023-04-30T05:26:16.477Z,2.17
2023-04-30T05:28:42.961Z,1.70
2023-04-30T05:31:09.514Z,1.58
2023-04-30T05:33:37.146Z,1.75
2023-04-30T05:36:03.802Z,2.42
2023-04-30T05:38:30.215Z,2.13
2023-04-30T05:40:56.746Z,1.40
2023-04-30T05:43:23.316Z,2.17
2023-04-30T05:45:49.799Z,2.25
2023-04-30T05:48:16.354Z,1.88
2023-04-30T05:50:43.467Z,1.90
2023-04-30T05:53:10.003Z,1.80
2023-04-30T05:55:36.562Z,1.40
2023-04-30T05:58:03.085Z,1.88
2023-04-30T06:00:29.534Z,1.65
2023-04-30T06:02:56.034Z,1.70
2023-04-30T06:05:22.581Z,1.58
2023-04-30T06:07:49.101Z,1.75
2023-04-30T06:10:15.698Z,1.45
2023-04-30T06:12:42.205Z,1.60
2023-04-30T06:15:08.908Z,1.40
2023-04-30T06:17:35.442Z,1.30
2023-04-30T06:20:06.786Z,1.40
2023-04-30T06:22:34.042Z,1.45
2023-04-30T06:25:01.033Z,1.65
2023-04-30T06:27:32.407Z,1.25
2023-04-30T06:30:00.839Z,1.55
2023-04-30T06:32:27.482Z,1.70
2023-04-30T06:34:53.896Z,1.88
2023-04-30T06:37:20.561Z,1.13
2023-04-30T06:39:47.061Z,1.27
2023-04-30T06:42:13.566Z,1.40
2023-04-30T06:44:40.081Z,1.70
2023-04-30T06:47:06.580Z,1.50
2023-04-30T06:49:33.056Z,1.25
2023-04-30T06:51:59.539Z,2.10
2023-04-30T06:54:27.146Z,1.63
2023-04-30T06:56:53.679Z,1.50
2023-04-30T06:59:20.138Z,1.60
2023-04-30T07:01:46.697Z,1.70
2023-04-30T07:04:14.361Z,1.40
2023-04-30T07:06:40.867Z,1.08
2023-04-30T07:09:07.447Z,1.85
2023-04-30T07:11:33.900Z,1.50
2023-04-30T07:14:00.538Z,1.58
2023-04-30T07:16:28.056Z,1.70
2023-04-30T07:18:54.648Z,1.85
2023-04-30T07:21:21.923Z,1.27
2023-04-30T07:23:48.724Z,1.08
2023-04-30T07:26:15.929Z,1.20
2023-04-30T07:28:42.493Z,1.30
2023-04-30T07:31:09.008Z,1.38
2023-04-30T07:33:35.545Z,1.13
2023-04-30T07:36:02.040Z,1.08
2023-04-30T07:38:29.395Z,1.20
2023-04-30T07:40:56.005Z,1.50
2023-04-30T07:43:22.492Z,1.20
2023-04-30T07:45:50.044Z,1.50
2023-04-30T07:48:17.241Z,1.13
2023-04-30T07:50:43.661Z,1.52
2023-04-30T07:53:10.323Z,1.20
2023-04-30T07:55:36.858Z,1.45
2023-04-30T07:58:04.454Z,1.60
2023-04-30T08:00:31.228Z,1.63
2023-04-30T08:03:01.127Z,1.27
2023-04-30T08:07:54.247Z,1.20
2023-04-30T08:10:20.851Z,1.23
2023-04-30T08:12:47.558Z,1.33
2023-04-30T08:15:14.065Z,1.30
2023-04-30T08:17:40.549Z,1.60
2023-04-30T08:20:07.765Z,1.13
2023-04-30T08:22:34.249Z,1.05
2023-04-30T08:25:01.973Z,0.82
2023-04-30T08:27:28.714Z,1.17
2023-04-30T08:29:55.346Z,0.70
2023-04-30T08:32:22.152Z,1.05
2023-04-30T08:34:48.670Z,1.08
2023-04-30T08:37:15.826Z,0.95
2023-04-30T08:39:42.280Z,0.77
2023-04-30T08:42:09.540Z,1.08
2023-04-30T08:44:39.702Z,1.02
2023-04-30T08:47:07.290Z,0.80
2023-04-30T08:49:33.970Z,0.98
2023-04-30T08:52:01.129Z,0.95
2023-04-30T08:54:31.564Z,0.90
2023-04-30T08:56:58.183Z,1.00
2023-04-30T08:59:24.643Z,1.02
2023-04-30T09:01:53.675Z,0.95
2023-04-30T09:04:20.918Z,0.70
2023-04-30T09:06:47.600Z,1.20
2023-04-30T09:09:16.066Z,1.40
2023-04-30T09:11:43.092Z,1.20
2023-04-30T09:14:09.713Z,0.90
2023-04-30T09:16:48.499Z,0.82
2023-04-30T09:19:29.823Z,0.95
2023-04-30T09:24:23.814Z,1.25
2023-04-30T09:26:51.063Z,1.05
2023-04-30T09:29:17.865Z,0.68
2023-04-30T09:31:47.716Z,1.17
2023-04-30T09:36:56.864Z,0.68
2023-04-30T09:39:23.440Z,0.70
2023-04-30T09:41:53.113Z,0.82
2023-04-30T09:44:30.664Z,0.70
2023-04-30T09:46:59.008Z,0.80
2023-04-30T09:49:26.454Z,1.02
2023-04-30T09:52:00.966Z,0.80
2023-04-30T09:54:29.253Z,0.52
2023-04-30T09:57:01.705Z,1.42
2023-04-30T09:59:39.403Z,1.10
2023-04-30T10:02:09.855Z,0.90
2023-04-30T10:04:40.002Z,1.05
2023-04-30T10:07:09.568Z,0.90
2023-04-30T10:09:41.211Z,1.20
2023-04-30T10:12:16.897Z,0.80
2023-04-30T10:14:58.005Z,1.15
2023-04-30T10:17:27.508Z,1.00
2023-04-30T10:20:00.380Z,1.17
2023-04-30T10:22:27.225Z,0.90
2023-04-30T10:24:54.014Z,1.13
2023-04-30T10:27:21.287Z,1.10
2023-04-30T10:29:47.921Z,1.00
2023-04-30T10:32:16.308Z,1.10
2023-04-30T10:34:53.842Z,1.00
2023-04-30T10:37:20.350Z,1.20
2023-04-30T10:39:47.162Z,0.98
2023-04-30T10:42:13.801Z,0.77
2023-04-30T10:44:40.356Z,0.93
2023-04-30T10:47:07.899Z,0.75
2023-04-30T10:49:34.978Z,1.02
2023-04-30T10:52:03.656Z,1.08
2023-04-30T10:54:40.107Z,0.85
2023-04-30T10:57:12.875Z,1.08
2023-04-30T10:59:45.054Z,1.05
2023-04-30T11:02:12.353Z,1.45
2023-04-30T11:05:07.881Z,1.00
2023-04-30T11:07:34.797Z,0.93
2023-04-30T11:10:02.547Z,0.95
2023-04-30T11:12:29.481Z,0.90
2023-04-30T11:15:16.691Z,1.02
2023-04-30T11:20:14.701Z,1.02
2023-04-30T11:22:41.449Z,1.15
2023-04-30T11:25:18.869Z,1.40
2023-04-30T11:27:45.639Z,1.02
2023-04-30T11:30:16.555Z,2.25
2023-04-30T11:32:47.893Z,1.42
2023-04-30T11:35:17.853Z,1.30
2023-04-30T11:37:45.190Z,1.02
2023-04-30T11:40:13.082Z,1.33
2023-04-30T11:42:46.902Z,1.40
2023-04-30T11:45:17.585Z,1.35
2023-04-30T11:47:49.266Z,1.27
2023-04-30T11:50:29.683Z,1.10
2023-04-30T11:52:57.389Z,1.20
2023-04-30T11:55:25.885Z,1.33
2023-04-30T11:57:55.745Z,2.63
2023-04-30T12:00:27.829Z,1.25
2023-04-30T12:02:55.899Z,1.05
2023-04-30T12:05:24.504Z,0.98
2023-04-30T12:07:51.951Z,1.25
2023-04-30T12:10:22.067Z,1.40
2023-04-30T12:12:55.102Z,1.70
2023-04-30T12:15:29.336Z,1.70
2023-04-30T12:20:38.743Z,1.30
2023-04-30T12:23:06.110Z,1.25
2023-04-30T12:25:40.617Z,1.33
2023-04-30T12:28:07.250Z,1.30
2023-04-30T12:30:34.200Z,1.40
2023-04-30T12:33:01.129Z,1.17
2023-04-30T12:35:28.943Z,1.40
2023-04-30T12:38:03.529Z,1.48
2023-04-30T12:40:30.185Z,1.27
2023-04-30T12:43:07.605Z,1.23
2023-04-30T12:45:47.107Z,1.40
2023-04-30T12:48:15.078Z,1.30
2023-04-30T12:50:41.911Z,0.95
2023-04-30T12:53:08.838Z,1.30
2023-04-30T12:55:37.448Z,1.10
2023-04-30T12:58:07.555Z,0.80
2023-04-30T13:00:47.693Z,1.00
2023-04-30T13:03:15.489Z,1.00
2023-04-30T13:05:42.435Z,1.10
2023-04-30T13:08:09.550Z,1.10
2023-04-30T13:10:36.030Z,1.23
2023-04-30T13:13:02.480Z,0.95
2023-04-30T13:15:29.034Z,1.13
2023-04-30T13:17:55.983Z,1.05
2023-04-30T13:20:22.554Z,1.30
2023-04-30T13:22:49.428Z,1.10
2023-04-30T13:25:17.118Z,1.10
2023-04-30T13:27:44.012Z,1.25
2023-04-30T13:30:11.274Z,0.85
2023-04-30T13:32:37.824Z,1.13
2023-04-30T13:35:04.665Z,1.20
2023-04-30T13:37:33.783Z,1.08
2023-04-30T13:40:01.472Z,1.00
2023-04-30T13:42:27.923Z,1.10
2023-04-30T13:44:54.410Z,1.13
2023-04-30T13:47:21.419Z,1.25
2023-04-30T13:49:48.011Z,1.00
2023-04-30T13:52:14.512Z,0.90
2023-04-30T13:54:41.533Z,1.08
2023-04-30T13:57:08.010Z,1.10
2023-04-30T13:59:34.679Z,1.38
2023-04-30T14:02:01.426Z,1.40
2023-04-30T14:04:28.290Z,0.82
2023-04-30T14:06:56.665Z,0.95
2023-04-30T14:09:23.329Z,1.00
2023-04-30T14:11:49.830Z,1.42
2023-04-30T14:14:16.487Z,1.05
2023-04-30T14:16:44.510Z,1.05
2023-04-30T14:19:11.075Z,0.82
2023-04-30T14:21:37.540Z,1.30
2023-04-30T14:24:04.217Z,0.93
2023-04-30T14:26:30.845Z,1.33
2023-04-30T14:28:57.533Z,1.10
2023-04-30T14:31:24.134Z,1.23
2023-04-30T14:33:50.662Z,0.93
2023-04-30T14:36:17.194Z,1.15
2023-04-30T14:38:43.965Z,1.40
2023-04-30T14:41:10.798Z,0.95
2023-04-30T14:43:37.290Z,1.30
2023-04-30T14:46:04.141Z,0.90
2023-04-30T14:48:30.685Z,0.90
2023-04-30T14:50:57.298Z,0.95
2023-04-30T14:53:23.769Z,0.93
2023-04-30T14:55:50.440Z,1.05
2023-04-30T14:58:16.911Z,1.08
2023-04-30T15:00:43.350Z,1.20
2023-04-30T15:03:11.916Z,1.30
2023-04-30T15:05:38.586Z,0.93
2023-04-30T15:08:07.317Z,0.82
2023-04-30T15:10:36.570Z,1.02
2023-04-30T15:13:03.697Z,0.85
2023-04-30T15:15:30.784Z,1.40
2023-04-30T15:18:01.128Z,1.35
2023-04-30T15:20:27.956Z,1.65
2023-04-30T15:22:55.140Z,1.30
2023-04-30T15:25:23.823Z,1.27
2023-04-30T15:27:53.967Z,1.25
2023-04-30T15:30:21.881Z,1.17
2023-04-30T15:32:50.057Z,0.93
2023-04-30T15:35:17.228Z,1.25
2023-04-30T15:37:44.807Z,1.38
2023-04-30T15:40:15.037Z,1.48
2023-04-30T15:45:09.746Z,1.08
2023-04-30T15:47:37.864Z,1.08
2023-04-30T15:50:04.861Z,1.85
2023-04-30T15:52:31.468Z,2.75
2023-04-30T15:54:58.059Z,1.02
2023-04-30T15:57:24.571Z,1.63
2023-04-30T15:59:51.258Z,1.10
2023-04-30T16:02:17.788Z,1.20
2023-04-30T16:04:44.577Z,1.08
2023-04-30T16:07:11.307Z,1.00
2023-04-30T16:09:38.397Z,1.13
2023-04-30T16:12:05.146Z,1.10
2023-04-30T16:14:31.711Z,1.20
2023-04-30T16:16:58.242Z,1.48
2023-04-30T16:19:24.801Z,1.20
2023-04-30T16:21:51.267Z,1.05
2023-04-30T16:24:17.919Z,1.05
2023-04-30T16:26:46.644Z,0.90
2023-04-30T16:29:13.112Z,1.00
2023-04-30T16:31:39.617Z,1.48
2023-04-30T16:34:06.237Z,0.90
2023-04-30T16:36:32.805Z,1.20
2023-04-30T16:38:59.324Z,1.42
2023-04-30T16:41:25.947Z,0.95
2023-04-30T16:43:52.503Z,1.20
2023-04-30T16:46:19.088Z,1.10
2023-04-30T16:48:45.733Z,1.70
2023-04-30T16:51:12.981Z,1.20
2023-04-30T16:53:39.718Z,1.33
2023-04-30T16:56:06.342Z,1.40
2023-04-30T16:58:32.791Z,1.10
2023-04-30T17:00:59.330Z,1.10
2023-04-30T17:03:25.994Z,1.52
2023-04-30T17:05:52.975Z,1.10
2023-04-30T17:08:20.197Z,1.33
2023-04-30T17:10:47.651Z,1.10
2023-04-30T17:13:14.314Z,1.38
2023-04-30T17:15:41.160Z,1.20
2023-04-30T17:18:09.519Z,0.90
2023-04-30T17:20:36.123Z,0.82
2023-04-30T17:23:03.162Z,1.25
2023-04-30T17:25:31.759Z,1.33
2023-04-30T17:28:01.664Z,1.35
2023-04-30T17:30:30.971Z,1.85
2023-04-30T17:32:58.586Z,1.27
2023-04-30T17:35:25.116Z,1.83
2023-04-30T17:37:51.603Z,1.00
2023-04-30T17:40:18.542Z,1.15
2023-04-30T17:42:45.191Z,1.00
2023-04-30T17:45:11.772Z,1.33
2023-04-30T17:47:38.585Z,1.30
2023-04-30T17:50:08.487Z,1.45
2023-04-30T17:52:38.324Z,1.20
2023-04-30T17:55:09.158Z,0.85
2023-04-30T17:57:36.168Z,1.10
2023-04-30T18:00:03.818Z,1.45
2023-04-30T18:02:30.493Z,1.80
2023-04-30T18:04:57.067Z,1.52
2023-04-30T18:07:23.625Z,1.40
2023-04-30T18:09:50.723Z,1.50
2023-04-30T18:12:17.434Z,1.60
2023-04-30T18:14:44.270Z,1.10
2023-04-30T18:17:11.388Z,1.50
2023-04-30T18:19:43.987Z,1.38
2023-04-30T18:22:12.289Z,1.50
2023-04-30T18:24:39.211Z,1.23
2023-04-30T18:27:06.954Z,1.13
2023-04-30T18:29:34.047Z,1.42
2023-04-30T18:32:00.700Z,1.70
2023-04-30T18:34:28.204Z,1.08
2023-04-30T18:36:54.835Z,1.38
2023-04-30T18:39:22.396Z,1.40
2023-04-30T18:41:49.359Z,1.17
2023-04-30T18:44:16.162Z,1.40
2023-04-30T18:46:42.774Z,1.30
2023-04-30T18:49:09.406Z,1.30
2023-04-30T18:51:36.072Z,1.10
2023-04-30T18:54:02.622Z,1.20
2023-04-30T18:56:29.126Z,1.15
2023-04-30T18:58:55.673Z,1.50
2023-04-30T19:01:24.327Z,1.35
2023-04-30T19:03:50.985Z,1.83
2023-04-30T19:06:17.687Z,2.08
2023-04-30T19:08:46.374Z,1.42
2023-04-30T19:11:13.843Z,1.52
2023-04-30T19:13:43.270Z,2.00
2023-04-30T19:16:09.825Z,1.80
2023-04-30T19:18:38.486Z,1.80
2023-04-30T19:21:05.771Z,2.25
2023-04-30T19:23:32.382Z,1.95
2023-04-30T19:25:59.985Z,2.00
2023-04-30T19:28:26.602Z,1.75
2023-04-30T19:30:56.562Z,2.30
2023-04-30T19:33:26.105Z,2.33
2023-04-30T19:35:55.682Z,2.45
2023-04-30T19:38:22.203Z,1.77
2023-04-30T19:40:53.835Z,1.98
2023-04-30T19:43:22.572Z,2.28
2023-04-30T19:45:52.784Z,2.05
2023-04-30T19:48:20.096Z,2.17
2023-04-30T19:50:50.280Z,2.10
2023-04-30T19:53:17.373Z,1.90
2023-04-30T19:55:44.134Z,2.28
2023-04-30T19:58:10.700Z,2.00
2023-04-30T20:00:40.719Z,2.40
2023-04-30T20:03:07.382Z,1.80
2023-04-30T20:05:36.126Z,1.98
2023-04-30T20:08:03.508Z,2.00
2023-04-30T20:10:30.855Z,2.22
2023-04-30T20:12:57.534Z,1.88
2023-04-30T20:15:24.979Z,2.17
2023-04-30T20:17:52.719Z,2.42
2023-04-30T20:20:20.814Z,2.40
2023-04-30T20:22:53.598Z,2.22
2023-04-30T20:25:21.926Z,2.15
2023-04-30T20:27:49.004Z,2.65
2023-04-30T20:30:15.478Z,2.95
2023-04-30T20:32:42.111Z,3.25
2023-04-30T20:35:09.076Z,2.85
2023-04-30T20:37:36.437Z,3.15
2023-04-30T20:40:03.750Z,3.55
2023-04-30T20:42:30.596Z,3.03
2023-04-30T20:44:57.066Z,3.20
2023-04-30T20:47:23.797Z,3.00
2023-04-30T20:49:51.224Z,2.53
2023-04-30T20:52:18.643Z,2.80
2023-04-30T20:54:45.770Z,2.78
2023-04-30T20:57:12.336Z,2.80
2023-04-30T20:59:38.748Z,2.25
2023-04-30T21:02:05.239Z,2.47
2023-04-30T21:04:32.073Z,3.00
2023-04-30T21:06:58.784Z,2.03
2023-04-30T21:09:25.306Z,2.67
2023-04-30T21:11:51.809Z,2.83
2023-04-30T21:14:18.288Z,2.35
2023-04-30T21:16:44.849Z,2.17
2023-04-30T21:19:11.349Z,1.58
2023-04-30T21:21:37.813Z,1.23
2023-04-30T21:24:05.183Z,1.70
2023-04-30T21:26:31.825Z,1.95
2023-04-30T21:28:58.323Z,1.77
2023-04-30T21:31:24.922Z,2.00
2023-04-30T21:33:51.585Z,1.90
2023-04-30T21:36:18.260Z,2.00
2023-04-30T21:38:44.908Z,1.95
2023-04-30T21:41:15.371Z,1.40
2023-04-30T21:43:42.184Z,1.48
2023-04-30T21:46:09.693Z,1.80
2023-04-30T21:48:38.271Z,1.98
2023-04-30T21:51:16.990Z,1.60
2023-04-30T21:53:44.485Z,1.55
2023-04-30T21:56:11.489Z,1.65
2023-04-30T21:58:38.695Z,1.73
2023-04-30T22:01:05.302Z,2.10
2023-04-30T22:03:32.131Z,1.92
2023-04-30T22:05:59.003Z,2.03
2023-04-30T22:08:25.787Z,1.58
2023-04-30T22:10:56.844Z,1.83
2023-04-30T22:13:23.393Z,1.88
2023-04-30T22:15:50.828Z,1.73
2023-04-30T22:18:17.259Z,1.52
2023-04-30T22:20:43.826Z,2.00
2023-04-30T22:23:10.305Z,1.30
2023-04-30T22:25:36.750Z,1.55
2023-04-30T22:28:03.279Z,1.75
2023-04-30T22:30:29.723Z,1.77
2023-04-30T22:32:56.805Z,1.77
2023-04-30T22:35:23.770Z,1.60
2023-04-30T22:37:50.243Z,1.55
2023-04-30T22:40:16.763Z,2.22
2023-04-30T22:42:43.527Z,1.90
2023-04-30T22:45:10.283Z,1.73
2023-04-30T22:47:36.858Z,1.80
2023-04-30T22:50:03.769Z,1.67
2023-04-30T22:52:31.940Z,2.05
2023-04-30T22:55:00.109Z,1.77
2023-04-30T22:57:26.986Z,2.10
2023-04-30T22:59:54.129Z,2.00
2023-04-30T23:02:20.787Z,2.00
2023-04-30T23:04:47.241Z,1.88
2023-04-30T23:07:14.111Z,1.75
2023-04-30T23:09:40.526Z,1.83
2023-04-30T23:12:07.145Z,2.03
2023-04-30T23:14:33.880Z,1.85
2023-04-30T23:17:00.773Z,1.70
2023-04-30T23:19:27.444Z,2.05
2023-04-30T23:21:53.961Z,1.65
2023-04-30T23:24:20.477Z,2.03
2023-04-30T23:26:47.194Z,1.70
2023-04-30T23:29:14.685Z,1.73
2023-04-30T23:31:41.294Z,2.05
2023-04-30T23:34:07.756Z,2.03
2023-04-30T23:36:34.239Z,1.98
2023-04-30T23:39:00.785Z,2.03
2023-04-30T23:41:27.315Z,2.08
2023-04-30T23:43:53.879Z,2.17
2023-04-30T23:46:20.686Z,2.08
2023-04-30T23:48:47.220Z,1.77
2023-04-30T23:51:13.746Z,1.73
2023-04-30T23:53:40.332Z,2.95
2023-04-30T23:56:08.418Z,2.92
2023-04-30T23:58:35.186Z,2.88
